sensor_id;sensor_type;location;lat;lon;timestamp;pressure;altitude;pressure_sealevel;temperature;humidity
39411;BME280;26579;43.238;23.124;2023-11-19T00:00:02;96986.63;;;6.77;48.38
39411;BME280;26579;43.238;23.124;2023-11-19T00:02:33;96985.09;;;6.75;48.35
39411;BME280;26579;43.238;23.124;2023-11-19T00:04:58;96987.69;;;6.75;48.35
39411;BME280;26579;43.238;23.124;2023-11-19T00:07:24;96986.00;;;6.74;48.06
39411;BME280;26579;43.238;23.124;2023-11-19T00:09:50;96978.56;;;6.69;48.36
39411;BME280;26579;43.238;23.124;2023-11-19T00:12:15;96977.22;;;6.64;48.38
39411;BME280;26579;43.238;23.124;2023-11-19T00:14:41;96988.59;;;6.74;48.35
39411;BME280;26579;43.238;23.124;2023-11-19T00:17:07;96994.41;;;6.77;47.79
39411;BME280;26579;43.238;23.124;2023-11-19T00:19:32;96998.88;;;6.75;48.18
39411;BME280;26579;43.238;23.124;2023-11-19T00:21:58;96988.38;;;6.64;48.16
39411;BME280;26579;43.238;23.124;2023-11-19T00:24:24;96998.22;;;6.72;48.13
39411;BME280;26579;43.238;23.124;2023-11-19T00:26:49;97014.19;;;6.78;48.14
39411;BME280;26579;43.238;23.124;2023-11-19T00:29:15;97002.38;;;6.74;48.04
39411;BME280;26579;43.238;23.124;2023-11-19T00:31:41;96994.50;;;6.76;47.75
39411;BME280;26579;43.238;23.124;2023-11-19T00:34:07;96998.53;;;6.80;47.54
39411;BME280;26579;43.238;23.124;2023-11-19T00:36:32;96985.28;;;6.72;47.42
39411;BME280;26579;43.238;23.124;2023-11-19T00:38:58;96988.41;;;6.77;47.95
39411;BME280;26579;43.238;23.124;2023-11-19T00:41:24;96995.63;;;6.72;47.86
39411;BME280;26579;43.238;23.124;2023-11-19T00:43:49;97004.03;;;6.75;47.75
39411;BME280;26579;43.238;23.124;2023-11-19T00:46:15;96998.66;;;6.78;47.48
39411;BME280;26579;43.238;23.124;2023-11-19T00:48:41;97001.66;;;6.85;47.79
39411;BME280;26579;43.238;23.124;2023-11-19T00:51:07;96997.75;;;6.92;47.27
39411;BME280;26579;43.238;23.124;2023-11-19T00:53:32;97011.53;;;6.93;47.39
39411;BME280;26579;43.238;23.124;2023-11-19T00:55:58;97001.19;;;6.93;47.15
39411;BME280;26579;43.238;23.124;2023-11-19T00:58:24;96991.53;;;6.95;47.31
39411;BME280;26579;43.238;23.124;2023-11-19T01:00:49;97007.09;;;7.08;47.28
39411;BME280;26579;43.238;23.124;2023-11-19T01:03:15;97002.13;;;7.05;47.24
39411;BME280;26579;43.238;23.124;2023-11-19T01:05:41;97020.34;;;7.16;47.04
39411;BME280;26579;43.238;23.124;2023-11-19T01:08:07;97026.88;;;7.21;47.54
39411;BME280;26579;43.238;23.124;2023-11-19T01:10:33;97022.41;;;7.23;46.56
39411;BME280;26579;43.238;23.124;2023-11-19T01:12:59;97026.34;;;7.29;46.92
39411;BME280;26579;43.238;23.124;2023-11-19T01:15:25;97028.44;;;7.37;46.38
39411;BME280;26579;43.238;23.124;2023-11-19T01:17:51;97022.00;;;7.30;46.23
39411;BME280;26579;43.238;23.124;2023-11-19T01:20:17;97011.84;;;7.26;46.71
39411;BME280;26579;43.238;23.124;2023-11-19T01:22:43;97027.50;;;7.38;46.29
39411;BME280;26579;43.238;23.124;2023-11-19T01:25:09;97018.38;;;7.32;47.53
39411;BME280;26579;43.238;23.124;2023-11-19T01:27:34;97009.69;;;7.20;47.98
39411;BME280;26579;43.238;23.124;2023-11-19T01:30:01;97023.69;;;7.31;46.26
39411;BME280;26579;43.238;23.124;2023-11-19T01:32:27;97014.13;;;7.18;46.16
39411;BME280;26579;43.238;23.124;2023-11-19T01:34:53;97032.56;;;7.26;46.56
39411;BME280;26579;43.238;23.124;2023-11-19T01:37:18;97032.44;;;7.15;46.55
39411;BME280;26579;43.238;23.124;2023-11-19T01:39:44;97028.75;;;7.19;46.84
39411;BME280;26579;43.238;23.124;2023-11-19T01:42:10;97011.53;;;7.18;45.81
39411;BME280;26579;43.238;23.124;2023-11-19T01:44:36;97033.50;;;7.25;46.97
39411;BME280;26579;43.238;23.124;2023-11-19T01:47:02;97027.91;;;7.19;47.96
39411;BME280;26579;43.238;23.124;2023-11-19T01:49:28;97028.84;;;7.18;47.33
39411;BME280;26579;43.238;23.124;2023-11-19T01:51:54;97029.97;;;7.14;47.90
39411;BME280;26579;43.238;23.124;2023-11-19T01:54:20;97022.09;;;7.15;47.22
39411;BME280;26579;43.238;23.124;2023-11-19T01:56:45;97005.53;;;7.05;46.63
39411;BME280;26579;43.238;23.124;2023-11-19T01:59:12;97011.84;;;7.14;47.10
39411;BME280;26579;43.238;23.124;2023-11-19T02:01:39;97003.34;;;7.12;47.83
39411;BME280;26579;43.238;23.124;2023-11-19T02:04:08;97006.28;;;7.07;46.55
39411;BME280;26579;43.238;23.124;2023-11-19T02:06:37;97003.75;;;7.06;47.40
39411;BME280;26579;43.238;23.124;2023-11-19T02:09:05;97004.59;;;7.06;48.98
39411;BME280;26579;43.238;23.124;2023-11-19T02:11:31;96999.94;;;6.98;49.37
39411;BME280;26579;43.238;23.124;2023-11-19T02:13:57;97004.91;;;7.01;46.98
39411;BME280;26579;43.238;23.124;2023-11-19T02:16:22;96992.19;;;6.98;47.83
39411;BME280;26579;43.238;23.124;2023-11-19T02:18:48;96990.28;;;6.88;48.57
39411;BME280;26579;43.238;23.124;2023-11-19T02:21:14;96972.47;;;6.70;49.83
39411;BME280;26579;43.238;23.124;2023-11-19T02:23:39;96976.34;;;6.63;51.18
39411;BME280;26579;43.238;23.124;2023-11-19T02:26:32;96981.84;;;6.58;52.21
39411;BME280;26579;43.238;23.124;2023-11-19T02:29:00;96985.66;;;6.53;51.53
39411;BME280;26579;43.238;23.124;2023-11-19T02:31:25;96992.88;;;6.48;51.93
39411;BME280;26579;43.238;23.124;2023-11-19T02:33:51;96997.78;;;6.52;51.02
39411;BME280;26579;43.238;23.124;2023-11-19T02:36:17;96989.88;;;6.41;50.09
39411;BME280;26579;43.238;23.124;2023-11-19T02:38:42;96988.03;;;6.43;52.32
39411;BME280;26579;43.238;23.124;2023-11-19T02:41:08;96987.81;;;6.46;53.22
39411;BME280;26579;43.238;23.124;2023-11-19T02:43:35;97002.94;;;6.52;53.95
39411;BME280;26579;43.238;23.124;2023-11-19T02:46:01;96994.56;;;6.49;54.67
39411;BME280;26579;43.238;23.124;2023-11-19T02:48:27;96997.63;;;6.41;53.31
39411;BME280;26579;43.238;23.124;2023-11-19T02:50:53;96990.75;;;6.27;53.74
39411;BME280;26579;43.238;23.124;2023-11-19T02:53:18;97006.41;;;6.39;53.13
39411;BME280;26579;43.238;23.124;2023-11-19T02:55:44;97009.81;;;6.39;52.27
39411;BME280;26579;43.238;23.124;2023-11-19T02:58:10;97014.63;;;6.31;51.01
39411;BME280;26579;43.238;23.124;2023-11-19T03:00:35;97015.31;;;6.34;51.23
39411;BME280;26579;43.238;23.124;2023-11-19T03:03:01;97008.06;;;6.40;50.93
39411;BME280;26579;43.238;23.124;2023-11-19T03:05:27;97014.38;;;6.35;52.26
39411;BME280;26579;43.238;23.124;2023-11-19T03:07:53;97008.44;;;6.33;51.91
39411;BME280;26579;43.238;23.124;2023-11-19T03:10:18;97011.22;;;6.30;52.90
39411;BME280;26579;43.238;23.124;2023-11-19T03:12:44;97002.22;;;6.23;51.83
39411;BME280;26579;43.238;23.124;2023-11-19T03:15:10;97019.38;;;6.24;50.54
39411;BME280;26579;43.238;23.124;2023-11-19T03:17:41;97005.81;;;6.21;52.64
39411;BME280;26579;43.238;23.124;2023-11-19T03:20:09;97012.00;;;6.18;53.41
39411;BME280;26579;43.238;23.124;2023-11-19T03:22:39;97008.28;;;6.22;53.27
39411;BME280;26579;43.238;23.124;2023-11-19T03:25:05;97012.41;;;6.12;53.45
39411;BME280;26579;43.238;23.124;2023-11-19T03:27:30;97008.25;;;6.09;53.87
39411;BME280;26579;43.238;23.124;2023-11-19T03:29:56;97018.78;;;6.06;53.38
39411;BME280;26579;43.238;23.124;2023-11-19T03:32:22;97007.06;;;6.01;52.82
39411;BME280;26579;43.238;23.124;2023-11-19T03:34:47;97024.34;;;6.00;52.82
39411;BME280;26579;43.238;23.124;2023-11-19T03:37:13;97028.75;;;6.12;52.09
39411;BME280;26579;43.238;23.124;2023-11-19T03:39:39;97032.84;;;6.02;52.92
39411;BME280;26579;43.238;23.124;2023-11-19T03:42:04;97028.69;;;6.00;53.41
39411;BME280;26579;43.238;23.124;2023-11-19T03:44:30;97025.44;;;5.96;52.63
39411;BME280;26579;43.238;23.124;2023-11-19T03:46:55;97027.53;;;5.89;53.27
39411;BME280;26579;43.238;23.124;2023-11-19T03:49:21;97029.06;;;5.94;52.98
39411;BME280;26579;43.238;23.124;2023-11-19T03:51:47;97028.56;;;5.87;53.00
39411;BME280;26579;43.238;23.124;2023-11-19T03:54:12;97011.59;;;5.83;53.28
39411;BME280;26579;43.238;23.124;2023-11-19T03:56:38;97028.13;;;5.95;53.40
39411;BME280;26579;43.238;23.124;2023-11-19T03:59:03;97034.22;;;5.94;52.83
39411;BME280;26579;43.238;23.124;2023-11-19T04:01:29;97033.28;;;5.95;52.66
39411;BME280;26579;43.238;23.124;2023-11-19T04:03:55;97028.03;;;5.82;53.26
39411;BME280;26579;43.238;23.124;2023-11-19T04:06:20;97027.19;;;5.96;52.67
39411;BME280;26579;43.238;23.124;2023-11-19T04:08:46;97001.72;;;5.75;53.10
39411;BME280;26579;43.238;23.124;2023-11-19T04:11:12;97014.25;;;5.81;53.39
39411;BME280;26579;43.238;23.124;2023-11-19T04:13:38;97007.00;;;5.74;53.20
39411;BME280;26579;43.238;23.124;2023-11-19T04:16:04;97017.59;;;5.69;54.22
39411;BME280;26579;43.238;23.124;2023-11-19T04:18:29;97015.41;;;5.63;53.81
39411;BME280;26579;43.238;23.124;2023-11-19T04:20:55;97014.38;;;5.65;53.70
39411;BME280;26579;43.238;23.124;2023-11-19T04:23:20;97018.91;;;5.62;53.73
39411;BME280;26579;43.238;23.124;2023-11-19T04:25:47;97018.81;;;5.63;52.41
39411;BME280;26579;43.238;23.124;2023-11-19T04:28:12;97028.31;;;5.63;53.32
39411;BME280;26579;43.238;23.124;2023-11-19T04:30:40;97009.97;;;5.53;53.82
39411;BME280;26579;43.238;23.124;2023-11-19T04:33:06;97019.00;;;5.60;52.95
39411;BME280;26579;43.238;23.124;2023-11-19T04:35:31;97007.00;;;5.59;53.15
39411;BME280;26579;43.238;23.124;2023-11-19T04:37:57;97011.16;;;5.62;53.08
39411;BME280;26579;43.238;23.124;2023-11-19T04:40:23;97011.78;;;5.65;53.08
39411;BME280;26579;43.238;23.124;2023-11-19T04:42:48;97002.47;;;5.49;54.26
39411;BME280;26579;43.238;23.124;2023-11-19T04:45:14;97015.66;;;5.58;54.50
39411;BME280;26579;43.238;23.124;2023-11-19T04:47:40;97028.31;;;5.49;53.86
39411;BME280;26579;43.238;23.124;2023-11-19T04:50:06;97031.63;;;5.51;54.86
39411;BME280;26579;43.238;23.124;2023-11-19T04:52:31;97042.78;;;5.37;55.06
39411;BME280;26579;43.238;23.124;2023-11-19T04:54:57;97047.31;;;5.48;53.98
39411;BME280;26579;43.238;23.124;2023-11-19T04:57:23;97038.94;;;5.44;53.33
39411;BME280;26579;43.238;23.124;2023-11-19T04:59:48;97029.78;;;5.38;54.69
39411;BME280;26579;43.238;23.124;2023-11-19T05:02:14;97023.44;;;5.44;53.57
39411;BME280;26579;43.238;23.124;2023-11-19T05:04:43;97016.13;;;5.36;54.44
39411;BME280;26579;43.238;23.124;2023-11-19T05:07:08;97026.72;;;5.32;54.76
39411;BME280;26579;43.238;23.124;2023-11-19T05:09:34;97010.88;;;5.24;54.51
39411;BME280;26579;43.238;23.124;2023-11-19T05:12:00;97011.72;;;5.24;54.77
39411;BME280;26579;43.238;23.124;2023-11-19T05:14:25;97012.06;;;5.32;54.12
39411;BME280;26579;43.238;23.124;2023-11-19T05:16:51;97006.72;;;5.21;54.70
39411;BME280;26579;43.238;23.124;2023-11-19T05:19:16;97020.53;;;5.20;55.13
39411;BME280;26579;43.238;23.124;2023-11-19T05:21:43;97001.38;;;5.24;54.67
39411;BME280;26579;43.238;23.124;2023-11-19T05:24:08;97008.56;;;5.33;54.15
39411;BME280;26579;43.238;23.124;2023-11-19T05:26:34;97012.06;;;5.32;54.75
39411;BME280;26579;43.238;23.124;2023-11-19T05:28:59;96996.22;;;5.24;54.50
39411;BME280;26579;43.238;23.124;2023-11-19T05:31:25;97017.69;;;5.25;55.03
39411;BME280;26579;43.238;23.124;2023-11-19T05:33:51;97018.63;;;5.24;54.69
39411;BME280;26579;43.238;23.124;2023-11-19T05:36:16;97014.28;;;5.24;54.75
39411;BME280;26579;43.238;23.124;2023-11-19T05:38:42;97013.63;;;5.20;55.21
39411;BME280;26579;43.238;23.124;2023-11-19T05:41:08;97016.31;;;5.19;55.13
39411;BME280;26579;43.238;23.124;2023-11-19T05:43:33;97009.69;;;5.15;54.90
39411;BME280;26579;43.238;23.124;2023-11-19T05:45:59;97031.25;;;5.28;54.76
39411;BME280;26579;43.238;23.124;2023-11-19T05:48:26;97037.97;;;5.31;54.44
39411;BME280;26579;43.238;23.124;2023-11-19T05:50:52;97037.88;;;5.32;54.64
39411;BME280;26579;43.238;23.124;2023-11-19T05:53:17;97040.13;;;5.38;54.05
39411;BME280;26579;43.238;23.124;2023-11-19T05:55:43;97047.00;;;5.38;54.39
39411;BME280;26579;43.238;23.124;2023-11-19T05:58:09;97029.31;;;5.32;54.69
39411;BME280;26579;43.238;23.124;2023-11-19T06:00:34;97023.78;;;5.38;54.60
39411;BME280;26579;43.238;23.124;2023-11-19T06:03:00;97011.03;;;5.35;54.48
39411;BME280;26579;43.238;23.124;2023-11-19T06:05:26;97013.38;;;5.39;54.68
39411;BME280;26579;43.238;23.124;2023-11-19T06:07:51;97017.22;;;5.47;54.42
39411;BME280;26579;43.238;23.124;2023-11-19T06:10:17;97005.25;;;5.45;54.92
39411;BME280;26579;43.238;23.124;2023-11-19T06:12:42;97012.06;;;5.47;54.93
39411;BME280;26579;43.238;23.124;2023-11-19T06:15:08;97038.38;;;5.53;54.99
39411;BME280;26579;43.238;23.124;2023-11-19T06:17:34;97030.06;;;5.62;54.28
39411;BME280;26579;43.238;23.124;2023-11-19T06:20:00;97022.88;;;5.82;53.73
39411;BME280;26579;43.238;23.124;2023-11-19T06:22:25;97028.28;;;6.06;53.26
39411;BME280;26579;43.238;23.124;2023-11-19T06:24:51;97012.97;;;6.03;53.32
39411;BME280;26579;43.238;23.124;2023-11-19T06:27:17;97040.41;;;6.32;52.42
39411;BME280;26579;43.238;23.124;2023-11-19T06:29:42;97042.88;;;6.34;52.60
39411;BME280;26579;43.238;23.124;2023-11-19T06:32:08;97043.47;;;6.25;52.90
39411;BME280;26579;43.238;23.124;2023-11-19T06:34:34;97043.19;;;6.29;52.98
39411;BME280;26579;43.238;23.124;2023-11-19T06:36:59;97037.78;;;6.47;51.98
39411;BME280;26579;43.238;23.124;2023-11-19T06:39:25;97037.53;;;6.64;50.96
39411;BME280;26579;43.238;23.124;2023-11-19T06:41:51;97054.44;;;7.22;50.16
39411;BME280;26579;43.238;23.124;2023-11-19T06:44:17;97033.22;;;7.30;49.59
39411;BME280;26579;43.238;23.124;2023-11-19T06:46:43;97047.91;;;7.30;49.37
39411;BME280;26579;43.238;23.124;2023-11-19T06:49:08;97040.34;;;7.14;49.89
39411;BME280;26579;43.238;23.124;2023-11-19T06:51:41;97043.34;;;7.08;50.18
39411;BME280;26579;43.238;23.124;2023-11-19T06:54:07;97043.94;;;6.98;50.86
39411;BME280;26579;43.238;23.124;2023-11-19T06:56:32;97048.72;;;7.05;50.63
39411;BME280;26579;43.238;23.124;2023-11-19T06:58:58;97043.22;;;7.09;49.90
39411;BME280;26579;43.238;23.124;2023-11-19T07:01:24;97052.06;;;7.45;48.45
39411;BME280;26579;43.238;23.124;2023-11-19T07:03:49;97053.00;;;7.57;48.34
39411;BME280;26579;43.238;23.124;2023-11-19T07:06:15;97041.59;;;7.59;48.50
39411;BME280;26579;43.238;23.124;2023-11-19T07:08:42;97042.63;;;8.19;47.65
39411;BME280;26579;43.238;23.124;2023-11-19T07:11:07;97042.69;;;9.49;43.00
39411;BME280;26579;43.238;23.124;2023-11-19T07:13:33;97048.47;;;10.20;42.09
39411;BME280;26579;43.238;23.124;2023-11-19T07:15:59;97053.94;;;10.39;41.55
39411;BME280;26579;43.238;23.124;2023-11-19T07:18:25;97057.31;;;10.95;40.64
39411;BME280;26579;43.238;23.124;2023-11-19T07:20:52;97065.22;;;10.93;39.05
39411;BME280;26579;43.238;23.124;2023-11-19T07:23:18;97067.94;;;11.45;38.82
39411;BME280;26579;43.238;23.124;2023-11-19T07:25:43;97059.88;;;12.40;37.76
39411;BME280;26579;43.238;23.124;2023-11-19T07:28:09;97056.22;;;12.72;36.37
39411;BME280;26579;43.238;23.124;2023-11-19T07:30:35;97040.69;;;12.99;35.57
39411;BME280;26579;43.238;23.124;2023-11-19T07:33:01;97031.19;;;13.47;33.99
39411;BME280;26579;43.238;23.124;2023-11-19T07:35:27;97046.63;;;13.30;33.94
39411;BME280;26579;43.238;23.124;2023-11-19T07:37:52;97049.75;;;13.14;34.28
39411;BME280;26579;43.238;23.124;2023-11-19T07:40:18;97049.38;;;14.13;33.50
39411;BME280;26579;43.238;23.124;2023-11-19T07:42:44;97054.56;;;14.96;31.34
39411;BME280;26579;43.238;23.124;2023-11-19T07:45:09;97060.97;;;15.63;30.21
39411;BME280;26579;43.238;23.124;2023-11-19T07:47:35;97059.16;;;15.82;29.26
39411;BME280;26579;43.238;23.124;2023-11-19T07:50:01;97062.47;;;16.69;28.67
39411;BME280;26579;43.238;23.124;2023-11-19T07:52:26;97053.84;;;17.01;27.51
39411;BME280;26579;43.238;23.124;2023-11-19T07:54:52;97052.00;;;16.77;28.35
39411;BME280;26579;43.238;23.124;2023-11-19T07:57:18;97048.25;;;17.45;27.88
39411;BME280;26579;43.238;23.124;2023-11-19T07:59:43;97049.53;;;17.74;27.63
39411;BME280;26579;43.238;23.124;2023-11-19T08:02:09;97063.53;;;17.50;27.46
39411;BME280;26579;43.238;23.124;2023-11-19T08:04:34;97058.44;;;17.81;27.62
39411;BME280;26579;43.238;23.124;2023-11-19T08:07:00;97054.69;;;17.34;26.58
39411;BME280;26579;43.238;23.124;2023-11-19T08:09:26;97047.41;;;17.77;26.42
39411;BME280;26579;43.238;23.124;2023-11-19T08:11:51;97051.19;;;18.30;25.90
39411;BME280;26579;43.238;23.124;2023-11-19T08:14:17;97053.88;;;18.22;25.39
39411;BME280;26579;43.238;23.124;2023-11-19T08:16:43;97045.41;;;19.20;24.66
39411;BME280;26579;43.238;23.124;2023-11-19T08:19:08;97040.84;;;18.91;23.63
39411;BME280;26579;43.238;23.124;2023-11-19T08:21:34;97058.03;;;19.86;22.84
39411;BME280;26579;43.238;23.124;2023-11-19T08:23:59;97059.53;;;21.06;21.64
39411;BME280;26579;43.238;23.124;2023-11-19T08:26:25;97046.59;;;21.17;21.34
39411;BME280;26579;43.238;23.124;2023-11-19T08:28:51;97050.19;;;22.50;20.92
39411;BME280;26579;43.238;23.124;2023-11-19T08:31:16;97054.88;;;23.23;19.23
39411;BME280;26579;43.238;23.124;2023-11-19T08:33:42;97057.06;;;24.32;19.25
39411;BME280;26579;43.238;23.124;2023-11-19T08:36:08;97046.53;;;23.46;18.38
39411;BME280;26579;43.238;23.124;2023-11-19T08:38:34;97065.38;;;22.70;19.26
39411;BME280;26579;43.238;23.124;2023-11-19T08:41:00;97058.81;;;23.54;18.70
39411;BME280;26579;43.238;23.124;2023-11-19T08:43:26;97054.28;;;23.61;18.41
39411;BME280;26579;43.238;23.124;2023-11-19T08:45:52;97046.97;;;23.83;18.65
39411;BME280;26579;43.238;23.124;2023-11-19T08:48:17;97043.88;;;24.57;18.00
39411;BME280;26579;43.238;23.124;2023-11-19T08:50:43;97046.38;;;25.54;17.57
39411;BME280;26579;43.238;23.124;2023-11-19T08:53:09;97039.53;;;25.90;17.06
39411;BME280;26579;43.238;23.124;2023-11-19T08:55:34;97039.97;;;25.37;16.87
39411;BME280;26579;43.238;23.124;2023-11-19T08:58:00;97029.56;;;25.28;16.62
39411;BME280;26579;43.238;23.124;2023-11-19T09:00:25;97027.13;;;24.89;16.81
39411;BME280;26579;43.238;23.124;2023-11-19T09:02:51;97031.03;;;24.41;16.90
39411;BME280;26579;43.238;23.124;2023-11-19T09:05:17;97041.25;;;24.51;17.66
39411;BME280;26579;43.238;23.124;2023-11-19T09:07:42;97052.19;;;25.69;16.98
39411;BME280;26579;43.238;23.124;2023-11-19T09:10:09;97043.22;;;26.44;16.30
39411;BME280;26579;43.238;23.124;2023-11-19T09:12:34;97058.59;;;25.62;16.51
39411;BME280;26579;43.238;23.124;2023-11-19T09:15:00;97043.41;;;26.68;15.67
39411;BME280;26579;43.238;23.124;2023-11-19T09:17:26;97050.28;;;25.77;16.35
39411;BME280;26579;43.238;23.124;2023-11-19T09:19:52;97044.22;;;26.50;15.80
39411;BME280;26579;43.238;23.124;2023-11-19T09:22:17;97042.84;;;25.60;15.77
39411;BME280;26579;43.238;23.124;2023-11-19T09:24:43;97027.97;;;25.71;16.07
39411;BME280;26579;43.238;23.124;2023-11-19T09:27:09;97021.22;;;25.93;16.21
39411;BME280;26579;43.238;23.124;2023-11-19T09:29:34;97032.13;;;25.10;16.21
39411;BME280;26579;43.238;23.124;2023-11-19T09:32:00;97023.88;;;24.42;16.80
39411;BME280;26579;43.238;23.124;2023-11-19T09:34:26;97022.19;;;23.69;17.35
39411;BME280;26579;43.238;23.124;2023-11-19T09:36:51;97008.84;;;24.67;17.31
39411;BME280;26579;43.238;23.124;2023-11-19T09:39:17;97015.34;;;24.20;17.25
39411;BME280;26579;43.238;23.124;2023-11-19T09:41:44;97010.78;;;24.85;16.71
39411;BME280;26579;43.238;23.124;2023-11-19T09:44:09;96994.59;;;24.48;17.38
39411;BME280;26579;43.238;23.124;2023-11-19T09:46:36;96988.41;;;24.61;17.01
39411;BME280;26579;43.238;23.124;2023-11-19T09:49:02;96990.00;;;25.50;16.22
39411;BME280;26579;43.238;23.124;2023-11-19T09:51:28;97003.63;;;25.42;16.09
39411;BME280;26579;43.238;23.124;2023-11-19T09:53:54;96986.03;;;25.85;15.94
39411;BME280;26579;43.238;23.124;2023-11-19T09:56:20;96989.16;;;26.18;15.43
39411;BME280;26579;43.238;23.124;2023-11-19T09:58:46;96965.00;;;26.62;15.42
39411;BME280;26579;43.238;23.124;2023-11-19T10:01:12;96982.97;;;26.55;15.79
39411;BME280;26579;43.238;23.124;2023-11-19T10:03:39;96990.19;;;25.30;16.24
39411;BME280;26579;43.238;23.124;2023-11-19T10:06:07;96987.16;;;24.05;16.87
39411;BME280;26579;43.238;23.124;2023-11-19T10:08:33;96978.47;;;23.58;17.95
39411;BME280;26579;43.238;23.124;2023-11-19T10:10:59;96988.09;;;23.19;18.28
39411;BME280;26579;43.238;23.124;2023-11-19T10:13:29;96972.44;;;22.02;19.34
39411;BME280;26579;43.238;23.124;2023-11-19T10:15:55;96980.22;;;21.68;19.94
39411;BME280;26579;43.238;23.124;2023-11-19T10:18:28;96977.53;;;20.33;20.25
39411;BME280;26579;43.238;23.124;2023-11-19T10:20:53;96971.44;;;19.29;21.69
39411;BME280;26579;43.238;23.124;2023-11-19T10:23:19;96956.66;;;18.82;22.36
39411;BME280;26579;43.238;23.124;2023-11-19T10:25:45;96973.28;;;18.59;22.35
39411;BME280;26579;43.238;23.124;2023-11-19T10:28:10;96977.50;;;18.68;23.80
39411;BME280;26579;43.238;23.124;2023-11-19T10:30:36;96982.38;;;18.57;23.27
39411;BME280;26579;43.238;23.124;2023-11-19T10:33:13;96978.03;;;18.64;23.31
39411;BME280;26579;43.238;23.124;2023-11-19T10:35:52;96970.75;;;18.74;23.53
39411;BME280;26579;43.238;23.124;2023-11-19T10:38:18;96955.84;;;18.81;22.68
39411;BME280;26579;43.238;23.124;2023-11-19T10:40:44;96939.38;;;18.56;23.09
39411;BME280;26579;43.238;23.124;2023-11-19T10:43:10;96958.91;;;18.07;24.04
39411;BME280;26579;43.238;23.124;2023-11-19T10:45:37;96957.09;;;17.60;23.75
39411;BME280;26579;43.238;23.124;2023-11-19T10:48:03;96964.59;;;17.88;24.86
39411;BME280;26579;43.238;23.124;2023-11-19T10:50:29;96944.53;;;17.71;24.72
39411;BME280;26579;43.238;23.124;2023-11-19T10:52:56;96955.75;;;17.73;24.19
39411;BME280;26579;43.238;23.124;2023-11-19T10:55:26;96951.72;;;17.46;24.39
39411;BME280;26579;43.238;23.124;2023-11-19T10:57:52;96951.88;;;17.44;24.79
39411;BME280;26579;43.238;23.124;2023-11-19T11:00:23;96950.69;;;17.55;24.51
39411;BME280;26579;43.238;23.124;2023-11-19T11:02:54;96945.84;;;17.83;24.41
39411;BME280;26579;43.238;23.124;2023-11-19T11:05:22;96935.84;;;17.62;24.21
39411;BME280;26579;43.238;23.124;2023-11-19T11:07:52;96941.28;;;17.69;24.13
39411;BME280;26579;43.238;23.124;2023-11-19T11:10:21;96956.56;;;17.65;24.58
39411;BME280;26579;43.238;23.124;2023-11-19T11:12:52;96932.69;;;17.75;23.86
39411;BME280;26579;43.238;23.124;2023-11-19T11:15:18;96937.22;;;17.50;24.54
39411;BME280;26579;43.238;23.124;2023-11-19T11:17:45;96945.69;;;17.68;24.71
39411;BME280;26579;43.238;23.124;2023-11-19T11:20:11;96946.38;;;17.70;24.53
39411;BME280;26579;43.238;23.124;2023-11-19T11:22:55;96934.34;;;17.68;24.55
39411;BME280;26579;43.238;23.124;2023-11-19T11:31:52;96919.13;;;17.47;24.66
39411;BME280;26579;43.238;23.124;2023-11-19T11:36:58;96920.06;;;17.62;24.54
39411;BME280;26579;43.238;23.124;2023-11-19T11:39:29;96909.66;;;17.21;24.42
39411;BME280;26579;43.238;23.124;2023-11-19T11:45:15;96919.03;;;17.15;24.81
39411;BME280;26579;43.238;23.124;2023-11-19T11:50:14;96900.00;;;17.05;24.34
39411;BME280;26579;43.238;23.124;2023-11-19T11:57:50;96898.81;;;16.34;25.96
39411;BME280;26579;43.238;23.124;2023-11-19T12:00:38;96895.66;;;16.06;25.65
39411;BME280;26579;43.238;23.124;2023-11-19T12:03:05;96887.97;;;16.37;25.96
39411;BME280;26579;43.238;23.124;2023-11-19T12:05:31;96875.50;;;16.31;25.97
39411;BME280;26579;43.238;23.124;2023-11-19T12:08:00;96883.63;;;15.87;25.68
39411;BME280;26579;43.238;23.124;2023-11-19T12:10:29;96887.06;;;15.88;25.97
39411;BME280;26579;43.238;23.124;2023-11-19T12:12:59;96875.44;;;15.98;26.40
39411;BME280;26579;43.238;23.124;2023-11-19T12:15:25;96869.22;;;16.07;25.84
39411;BME280;26579;43.238;23.124;2023-11-19T12:17:51;96851.19;;;16.21;25.99
39411;BME280;26579;43.238;23.124;2023-11-19T12:20:20;96855.16;;;16.33;25.29
39411;BME280;26579;43.238;23.124;2023-11-19T12:22:47;96872.22;;;16.45;25.48
39411;BME280;26579;43.238;23.124;2023-11-19T12:25:13;96862.22;;;16.33;26.21
39411;BME280;26579;43.238;23.124;2023-11-19T12:27:40;96863.84;;;16.42;26.39
39411;BME280;26579;43.238;23.124;2023-11-19T12:30:07;96868.28;;;16.41;25.56
39411;BME280;26579;43.238;23.124;2023-11-19T12:32:43;96869.25;;;16.48;25.70
39411;BME280;26579;43.238;23.124;2023-11-19T12:35:10;96875.00;;;16.60;26.32
39411;BME280;26579;43.238;23.124;2023-11-19T12:37:46;96881.09;;;16.44;25.46
39411;BME280;26579;43.238;23.124;2023-11-19T12:40:19;96889.16;;;16.59;26.06
39411;BME280;26579;43.238;23.124;2023-11-19T12:42:49;96885.84;;;16.33;25.89
39411;BME280;26579;43.238;23.124;2023-11-19T12:45:15;96882.56;;;16.30;25.86
39411;BME280;26579;43.238;23.124;2023-11-19T12:47:42;96883.53;;;16.21;25.80
39411;BME280;26579;43.238;23.124;2023-11-19T12:50:09;96876.28;;;16.07;26.41
39411;BME280;26579;43.238;23.124;2023-11-19T12:52:36;96877.16;;;16.24;26.81
39411;BME280;26579;43.238;23.124;2023-11-19T12:55:05;96868.94;;;16.35;26.99
39411;BME280;26579;43.238;23.124;2023-11-19T12:57:48;96859.94;;;16.38;26.73
39411;BME280;26579;43.238;23.124;2023-11-19T13:00:22;96865.31;;;16.36;25.94
39411;BME280;26579;43.238;23.124;2023-11-19T13:02:50;96866.28;;;16.19;26.18
39411;BME280;26579;43.238;23.124;2023-11-19T13:05:33;96865.78;;;16.07;25.74
39411;BME280;26579;43.238;23.124;2023-11-19T13:08:07;96867.84;;;15.79;26.13
39411;BME280;26579;43.238;23.124;2023-11-19T13:10:34;96874.41;;;15.75;27.02